Time;durP1;ratioP1;P1;durP2;ratioP2;P2;SDS_P1;SDS_P2;PMS_P1;PMS_P2;Temp;Humidity;BMP_temperature;BMP_pressure;BME280_temperature;BME280_humidity;BME280_pressure;Samples;Min_cycle;Max_cycle;Signal;HPM_P1;HPM_P2
2021/10/07 00:01:01;;;;;;;11.48;3.78;;;13.60;99.90;;;;;;5075699;28;20233;-89
2021/10/07 00:03:26;;;;;;;8.25;3.38;;;13.70;99.90;;;;;;5077687;28;20163;-91
2021/10/07 00:05:52;;;;;;;12.43;3.72;;;13.70;99.90;;;;;;5077305;28;20247;-90
2021/10/07 00:08:17;;;;;;;22.52;4.00;;;13.70;99.90;;;;;;5077484;28;20162;-90
2021/10/07 00:10:43;;;;;;;16.17;3.33;;;13.70;99.90;;;;;;5076291;28;20189;-90
2021/10/07 00:13:09;;;;;;;8.23;2.90;;;13.60;99.90;;;;;;5077738;28;20574;-90
2021/10/07 00:15:34;;;;;;;12.60;3.85;;;13.60;99.90;;;;;;5077812;28;20623;-90
2021/10/07 00:18:00;;;;;;;10.77;3.45;;;13.50;99.90;;;;;;5077378;28;20242;-91
2021/10/07 00:20:25;;;;;;;10.88;3.50;;;13.60;99.90;;;;;;5077348;28;20186;-90
2021/10/07 00:22:51;;;;;;;18.10;4.07;;;13.50;99.90;;;;;;5077210;28;20170;-90
2021/10/07 00:25:17;;;;;;;14.95;3.95;;;13.40;99.90;;;;;;5077395;28;20216;-91
2021/10/07 00:27:43;;;;;;;10.73;3.55;;;13.40;99.90;;;;;;5077225;28;20166;-90
2021/10/07 00:30:14;;;;;;;8.23;3.65;;;13.50;99.90;;;;;;5076753;28;20646;-88
2021/10/07 00:32:56;;;;;;;25.70;3.70;;;13.50;99.90;;;;;;5077316;28;20170;-88
2021/10/07 00:35:40;;;;;;;8.43;3.33;;;13.50;99.90;;;;;;5077514;28;20170;-89
2021/10/07 00:40:50;;;;;;;9.70;3.22;;;13.50;99.90;;;;;;5077548;28;20233;-89
2021/10/07 00:43:16;;;;;;;11.98;2.78;;;13.60;99.90;;;;;;5077966;28;20167;-90
2021/10/07 00:45:52;;;;;;;19.15;3.20;;;13.50;99.90;;;;;;5077670;28;20162;-90
2021/10/07 00:48:18;;;;;;;10.23;3.35;;;13.40;99.90;;;;;;5077193;28;20165;-88
2021/10/07 00:50:45;;;;;;;12.40;3.05;;;13.30;99.90;;;;;;5077455;28;20186;-90
2021/10/07 00:53:19;;;;;;;5.97;3.00;;;13.10;99.90;;;;;;5075527;28;20220;-88
2021/10/07 00:55:46;;;;;;;17.85;4.28;;;13.10;99.90;;;;;;5077297;28;20626;-89
2021/10/07 00:58:13;;;;;;;17.30;2.80;;;13.10;99.90;;;;;;5077734;28;20166;-88
2021/10/07 01:00:39;;;;;;;7.90;2.63;;;13.20;99.90;;;;;;5078110;28;20327;-90
2021/10/07 01:03:05;;;;;;;9.68;3.05;;;13.40;99.90;;;;;;5077796;28;20190;-90
2021/10/07 01:05:31;;;;;;;6.50;2.67;;;13.50;99.90;;;;;;5077528;28;20167;-90
2021/10/07 01:07:57;;;;;;;13.20;2.70;;;13.50;99.90;;;;;;5077549;28;20166;-89
2021/10/07 01:10:24;;;;;;;10.23;3.00;;;13.40;99.90;;;;;;5077263;28;20244;-88
2021/10/07 01:12:50;;;;;;;5.82;2.78;;;13.50;99.90;;;;;;5077697;28;20173;-86
2021/10/07 01:15:16;;;;;;;13.60;2.90;;;13.40;99.90;;;;;;5077311;28;20249;-90
2021/10/07 01:17:41;;;;;;;6.65;2.28;;;13.40;99.90;;;;;;5077836;28;20170;-91
2021/10/07 01:20:07;;;;;;;8.57;3.22;;;13.40;99.90;;;;;;5077301;28;20267;-92
2021/10/07 01:22:33;;;;;;;11.57;3.08;;;13.50;99.90;;;;;;5076812;28;20191;-90
2021/10/07 01:25:01;;;;;;;9.88;2.42;;;13.40;99.90;;;;;;5077308;28;20166;-89
2021/10/07 01:27:30;;;;;;;7.93;2.97;;;13.40;99.90;;;;;;5077143;28;20681;-87
2021/10/07 01:29:59;;;;;;;8.73;3.13;;;13.30;99.90;;;;;;5076805;28;20178;-89
2021/10/07 01:32:25;;;;;;;10.10;2.88;;;13.40;99.90;;;;;;5077246;28;20170;-90
2021/10/07 01:34:50;;;;;;;10.98;3.40;;;13.40;99.90;;;;;;5076885;28;20159;-89
2021/10/07 01:37:17;;;;;;;10.50;3.53;;;13.50;99.90;;;;;;5076554;28;20237;-90
2021/10/07 01:39:42;;;;;;;8.50;2.60;;;13.60;99.90;;;;;;5076776;28;20208;-90
2021/10/07 01:42:09;;;;;;;13.18;3.50;;;13.50;99.90;;;;;;5076924;28;20654;-90
2021/10/07 01:44:35;;;;;;;6.38;2.55;;;13.50;99.90;;;;;;5076384;28;20191;-90
2021/10/07 01:47:00;;;;;;;10.60;3.75;;;13.50;99.90;;;;;;5076912;28;20178;-89
2021/10/07 01:49:26;;;;;;;13.30;3.38;;;13.60;99.90;;;;;;5075979;28;20535;-89
2021/10/07 01:51:52;;;;;;;11.40;2.90;;;13.70;99.90;;;;;;5075249;28;20184;-88
2021/10/07 01:54:18;;;;;;;8.68;3.45;;;13.70;99.90;;;;;;5076284;28;20194;-87
2021/10/07 01:56:44;;;;;;;13.02;4.07;;;13.70;99.90;;;;;;5075896;28;20557;-89
2021/10/07 01:59:10;;;;;;;11.70;3.33;;;13.60;99.90;;;;;;5076006;28;20209;-89
2021/10/07 02:01:36;;;;;;;7.20;3.40;;;13.50;99.90;;;;;;5076267;28;20650;-90
2021/10/07 02:04:02;;;;;;;16.73;4.00;;;13.30;99.90;;;;;;5074782;28;20170;-89
2021/10/07 02:06:29;;;;;;;7.10;2.83;;;13.20;99.90;;;;;;5075872;28;20171;-89
2021/10/07 02:08:55;;;;;;;6.47;3.67;;;13.20;99.90;;;;;;5077027;28;20174;-85
2021/10/07 02:11:20;;;;;;;9.38;2.80;;;13.40;99.90;;;;;;5076347;28;20206;-89
2021/10/07 02:13:46;;;;;;;7.10;2.80;;;13.10;99.90;;;;;;5075840;28;20525;-89
2021/10/07 02:16:12;;;;;;;3.83;2.35;;;12.80;99.90;;;;;;5075990;28;20206;-89
2021/10/07 02:18:37;;;;;;;12.95;3.22;;;12.70;99.90;;;;;;5075733;28;20248;-86
2021/10/07 02:21:03;;;;;;;7.15;2.97;;;12.70;99.90;;;;;;5075120;28;20203;-89
2021/10/07 02:23:29;;;;;;;4.78;2.67;;;12.80;99.90;;;;;;5073593;28;20176;-89
2021/10/07 02:25:55;;;;;;;3.38;2.60;;;12.80;99.90;;;;;;5074841;28;20523;-90
2021/10/07 02:28:20;;;;;;;8.00;3.10;;;12.80;99.90;;;;;;5074913;28;20249;-89
2021/10/07 02:30:46;;;;;;;5.93;3.22;;;12.80;99.90;;;;;;5074705;28;20182;-90
2021/10/07 02:33:12;;;;;;;6.82;2.60;;;12.80;99.90;;;;;;5075017;28;20174;-90
2021/10/07 02:35:38;;;;;;;8.57;3.67;;;12.90;99.90;;;;;;5074575;28;20171;-89
2021/10/07 02:38:04;;;;;;;11.13;3.40;;;13.00;99.90;;;;;;5075244;28;20189;-88
2021/10/07 02:40:31;;;;;;;8.32;2.80;;;12.90;99.90;;;;;;5074858;28;20262;-90
2021/10/07 02:42:57;;;;;;;12.40;3.22;;;12.80;99.90;;;;;;5074742;28;20159;-89
2021/10/07 02:45:23;;;;;;;12.18;3.10;;;12.60;99.90;;;;;;5074524;28;20571;-89
2021/10/07 02:47:51;;;;;;;12.63;3.30;;;12.50;99.90;;;;;;5075022;28;20178;-89
2021/10/07 02:50:18;;;;;;;5.70;3.03;;;12.60;99.90;;;;;;5073683;28;20182;-84
2021/10/07 02:52:45;;;;;;;7.30;2.33;;;12.50;99.90;;;;;;5074796;28;20182;-84
2021/10/07 02:55:11;;;;;;;4.43;2.42;;;12.30;99.90;;;;;;5074549;28;20166;-87
2021/10/07 02:57:37;;;;;;;11.23;3.35;;;12.40;99.90;;;;;;5074730;28;20182;-89
2021/10/07 03:00:05;;;;;;;8.55;3.58;;;12.50;99.90;;;;;;5074193;28;20186;-75
2021/10/07 03:02:30;;;;;;;10.27;3.55;;;12.60;99.90;;;;;;5073528;28;20210;-81
2021/10/07 03:04:56;;;;;;;6.60;2.88;;;12.70;99.90;;;;;;5075004;28;20719;-90
2021/10/07 03:07:22;;;;;;;7.05;3.22;;;12.60;99.90;;;;;;5074196;28;20175;-75
2021/10/07 03:09:47;;;;;;;6.22;3.22;;;12.50;99.90;;;;;;5073307;28;20197;-90
2021/10/07 03:12:13;;;;;;;6.03;2.95;;;12.50;99.90;;;;;;5074290;28;20167;-88
2021/10/07 03:14:42;;;;;;;7.60;3.42;;;12.40;99.90;;;;;;5074487;28;20215;-89
2021/10/07 03:17:08;;;;;;;6.00;2.97;;;12.30;99.90;;;;;;5074249;28;20638;-88
2021/10/07 03:19:34;;;;;;;13.13;3.33;;;12.30;99.90;;;;;;5074836;28;20540;-90
2021/10/07 03:21:59;;;;;;;5.88;2.95;;;12.40;99.90;;;;;;5072559;28;20213;-89
2021/10/07 03:24:25;;;;;;;8.93;2.92;;;12.50;99.90;;;;;;5073801;28;20175;-90
2021/10/07 03:26:50;;;;;;;6.30;2.97;;;12.40;99.90;;;;;;5073879;28;20166;-90
2021/10/07 03:29:16;;;;;;;9.90;3.55;;;12.40;99.90;;;;;;5073795;28;20189;-90
2021/10/07 03:31:41;;;;;;;5.85;2.83;;;12.50;99.90;;;;;;5073902;28;20167;-88
2021/10/07 03:34:07;;;;;;;9.15;3.03;;;12.50;99.90;;;;;;5073795;28;20623;-86
2021/10/07 03:36:33;;;;;;;11.02;3.42;;;12.50;99.90;;;;;;5073925;28;20626;-87
2021/10/07 03:38:58;;;;;;;6.93;3.03;;;12.60;99.90;;;;;;5074119;28;20194;-89
2021/10/07 03:41:24;;;;;;;3.78;2.58;;;12.40;99.90;;;;;;5074093;28;20194;-90
2021/10/07 03:43:50;;;;;;;5.15;2.90;;;12.20;99.90;;;;;;5074000;28;20173;-91
2021/10/07 03:46:17;;;;;;;6.63;2.85;;;12.20;99.90;;;;;;5073660;28;20169;-86
2021/10/07 03:48:43;;;;;;;6.13;2.60;;;12.30;99.90;;;;;;5074190;28;20162;-89
2021/10/07 03:51:09;;;;;;;9.82;2.92;;;12.50;99.90;;;;;;5073774;28;20197;-84
2021/10/07 03:53:35;;;;;;;6.45;3.35;;;12.30;99.90;;;;;;5073732;28;20178;-88
2021/10/07 03:56:00;;;;;;;4.40;2.92;;;12.30;99.90;;;;;;5073748;28;20170;-89
2021/10/07 03:58:26;;;;;;;8.00;3.20;;;12.40;99.90;;;;;;5073700;28;20227;-87
2021/10/07 04:00:53;;;;;;;16.45;3.45;;;12.40;99.90;;;;;;5074090;28;20197;-89
2021/10/07 04:03:19;;;;;;;4.38;2.92;;;12.00;99.90;;;;;;5074641;28;20173;-89
2021/10/07 04:05:47;;;;;;;10.88;4.13;;;12.00;99.90;;;;;;5072701;28;20163;-89
2021/10/07 04:08:13;;;;;;;5.95;3.15;;;12.00;99.90;;;;;;5073971;28;20177;-90
2021/10/07 04:10:39;;;;;;;4.93;2.85;;;11.90;99.90;;;;;;5073474;28;20190;-82
2021/10/07 04:13:04;;;;;;;10.02;3.53;;;11.80;99.90;;;;;;5073849;28;20202;-90
2021/10/07 04:15:30;;;;;;;6.43;2.35;;;11.80;99.90;;;;;;5073519;28;20167;-87
2021/10/07 04:17:56;;;;;;;5.68;3.00;;;11.90;99.90;;;;;;5073760;28;20155;-89
2021/10/07 04:20:21;;;;;;;8.65;3.75;;;12.00;99.90;;;;;;5072290;28;20191;-88
2021/10/07 04:22:47;;;;;;;8.18;3.78;;;12.00;99.90;;;;;;5073662;28;20171;-90
2021/10/07 04:25:12;;;;;;;8.27;3.17;;;11.90;99.90;;;;;;5073602;28;20177;-90
2021/10/07 04:27:38;;;;;;;6.07;3.05;;;11.90;99.90;;;;;;5073782;28;20177;-90
2021/10/07 04:30:06;;;;;;;13.98;3.45;;;11.90;99.90;;;;;;5073319;28;20261;-89
2021/10/07 04:32:32;;;;;;;7.07;3.03;;;12.00;99.90;;;;;;5072698;28;20171;-90
2021/10/07 04:34:58;;;;;;;6.10;2.80;;;12.00;99.90;;;;;;5073172;28;20266;-90
2021/10/07 04:37:23;;;;;;;5.22;3.08;;;12.00;99.90;;;;;;5072963;28;20165;-88
2021/10/07 04:39:50;;;;;;;4.97;3.05;;;12.00;99.90;;;;;;5073569;28;20214;-84
2021/10/07 04:42:16;;;;;;;6.50;3.80;;;11.90;99.90;;;;;;5071999;28;20252;-87
2021/10/07 04:44:41;;;;;;;5.47;3.45;;;12.00;99.90;;;;;;5073221;28;20171;-88
2021/10/07 04:47:07;;;;;;;7.85;3.65;;;12.00;99.90;;;;;;5076774;28;20253;-89
2021/10/07 04:49:33;;;;;;;5.72;3.50;;;12.00;99.90;;;;;;5076088;28;20609;-88
2021/10/07 04:51:59;;;;;;;11.50;4.03;;;12.00;99.90;;;;;;5075988;28;20170;-88
2021/10/07 04:54:25;;;;;;;9.95;4.38;;;12.10;99.90;;;;;;5076378;28;20593;-89
2021/10/07 04:56:50;;;;;;;6.88;4.38;;;12.10;99.90;;;;;;5076687;28;20203;-88
2021/10/07 04:59:16;;;;;;;10.32;3.78;;;12.10;99.90;;;;;;5075269;28;20193;-74
2021/10/07 05:01:41;;;;;;;10.18;4.68;;;12.10;99.90;;;;;;5076004;28;20696;-82
2021/10/07 05:04:07;;;;;;;7.85;4.35;;;12.20;99.90;;;;;;5075101;28;20178;-81
2021/10/07 05:06:33;;;;;;;9.18;3.97;;;12.20;99.90;;;;;;5074531;28;20174;-90
2021/10/07 05:08:58;;;;;;;8.65;4.03;;;12.00;99.90;;;;;;5075980;28;20170;-75
2021/10/07 05:11:24;;;;;;;5.13;3.72;;;11.90;99.90;;;;;;5074428;28;20619;-75
2021/10/07 05:13:49;;;;;;;10.52;6.22;;;11.90;99.90;;;;;;5075495;28;20166;-89
2021/10/07 05:16:15;;;;;;;10.13;4.05;;;11.90;99.90;;;;;;5075672;28;20171;-90
2021/10/07 05:18:41;;;;;;;11.02;4.10;;;12.00;99.90;;;;;;5075823;28;20162;-87
2021/10/07 05:21:07;;;;;;;7.00;3.72;;;12.20;99.90;;;;;;5075576;28;20263;-88
2021/10/07 05:23:34;;;;;;;12.82;4.00;;;12.10;99.90;;;;;;5075217;28;20237;-75
2021/10/07 05:26:00;;;;;;;5.75;3.65;;;12.00;99.90;;;;;;5074119;28;20657;-80
2021/10/07 05:28:26;;;;;;;4.90;3.60;;;12.00;99.90;;;;;;5074444;28;20262;-88
2021/10/07 05:30:52;;;;;;;4.05;3.42;;;11.80;99.90;;;;;;5076163;28;20259;-91
2021/10/07 05:33:22;;;;;;;5.90;4.00;;;11.80;99.90;;;;;;5075758;28;20170;-89
2021/10/07 05:35:49;;;;;;;7.97;3.90;;;11.80;99.90;;;;;;5075948;28;20181;-90
2021/10/07 05:38:17;;;;;;;5.90;3.85;;;11.60;99.90;;;;;;5075708;28;20150;-88
2021/10/07 05:40:43;;;;;;;5.75;3.55;;;11.60;99.90;;;;;;5075370;28;20757;-89
2021/10/07 05:43:09;;;;;;;8.60;3.97;;;11.60;99.90;;;;;;5075516;28;20166;-87
2021/10/07 05:45:35;;;;;;;10.57;4.75;;;11.50;99.90;;;;;;5074213;28;20167;-75
2021/10/07 05:48:01;;;;;;;9.38;5.05;;;11.60;99.90;;;;;;5073670;28;20181;-87
2021/10/07 05:50:27;;;;;;;11.40;4.03;;;11.70;99.90;;;;;;5074878;28;20190;-87
2021/10/07 05:52:53;;;;;;;8.10;4.72;;;11.80;99.90;;;;;;5075022;28;20175;-88
2021/10/07 05:55:18;;;;;;;8.00;4.82;;;11.80;99.90;;;;;;5086530;22;20218;-76
2021/10/07 05:57:44;;;;;;;7.72;5.03;;;11.80;99.90;;;;;;5009067;28;20218;-75
2021/10/07 06:00:10;;;;;;;10.30;4.57;;;11.80;99.90;;;;;;5023421;28;20621;-74
2021/10/07 06:02:36;;;;;;;10.02;4.45;;;11.70;99.90;;;;;;5032463;28;20207;-75
2021/10/07 06:05:04;;;;;;;9.50;4.55;;;11.70;99.90;;;;;;5032744;28;20251;-75
2021/10/07 06:07:29;;;;;;;6.30;4.43;;;11.70;99.90;;;;;;5033186;28;20256;-75
2021/10/07 06:09:55;;;;;;;16.50;4.68;;;11.80;99.90;;;;;;5033114;28;20290;-75
2021/10/07 06:12:21;;;;;;;8.25;7.25;;;11.80;99.90;;;;;;5033278;28;20156;-74
2021/10/07 06:14:47;;;;;;;10.30;6.15;;;11.90;99.90;;;;;;5033302;28;20183;-74
2021/10/07 06:17:14;;;;;;;13.38;6.10;;;11.90;99.90;;;;;;5015403;28;20190;-79
2021/10/07 06:19:40;;;;;;;8.95;4.95;;;12.00;99.90;;;;;;5032790;28;20250;-75
2021/10/07 06:22:06;;;;;;;9.55;5.38;;;11.80;99.90;;;;;;5032923;28;20630;-75
2021/10/07 06:24:32;;;;;;;8.38;5.28;;;11.70;99.90;;;;;;5032203;28;20171;-76
2021/10/07 06:26:59;;;;;;;5.50;4.95;;;11.60;99.90;;;;;;5032649;28;20233;-75
2021/10/07 06:29:25;;;;;;;17.42;5.85;;;11.70;99.90;;;;;;5032411;28;20188;-75
2021/10/07 06:31:51;;;;;;;11.00;5.53;;;11.70;99.90;;;;;;5031700;28;20310;-74
2021/10/07 06:34:16;;;;;;;7.70;5.25;;;11.80;99.90;;;;;;5032133;28;20724;-75
2021/10/07 06:36:42;;;;;;;8.15;5.78;;;11.80;99.90;;;;;;5031761;28;20183;-75
2021/10/07 06:39:08;;;;;;;10.50;4.93;;;12.00;99.90;;;;;;5032068;28;20217;-75
2021/10/07 06:41:34;;;;;;;7.20;5.30;;;12.10;99.90;;;;;;5032024;28;20667;-75
2021/10/07 06:44:00;;;;;;;17.63;6.22;;;12.10;99.90;;;;;;5032187;28;20163;-76
2021/10/07 06:46:27;;;;;;;15.80;6.43;;;12.20;99.90;;;;;;5032661;28;20620;-75
2021/10/07 06:48:56;;;;;;;7.32;6.03;;;12.30;99.90;;;;;;5032833;28;20209;-75
2021/10/07 06:51:26;;;;;;;10.55;5.95;;;12.30;99.90;;;;;;5031877;28;20167;-77
2021/10/07 06:53:54;;;;;;;10.73;6.00;;;12.40;99.90;;;;;;5032307;28;20172;-75
2021/10/07 06:56:21;;;;;;;17.40;5.97;;;12.50;99.90;;;;;;5031802;28;20270;-76
2021/10/07 06:58:53;;;;;;;11.77;8.07;;;12.60;99.90;;;;;;5031700;28;20167;-77
2021/10/07 07:01:20;;;;;;;10.73;6.78;;;12.50;99.90;;;;;;5031847;28;20218;-76
2021/10/07 07:03:50;;;;;;;18.08;6.85;;;12.60;99.90;;;;;;5032144;28;20850;-76
2021/10/07 07:06:16;;;;;;;17.15;7.15;;;12.50;99.90;;;;;;5032171;28;20262;-75
2021/10/07 07:08:42;;;;;;;13.85;6.55;;;12.50;99.90;;;;;;5031824;28;20156;-76
2021/10/07 07:11:08;;;;;;;8.20;6.38;;;12.50;99.90;;;;;;5032047;28;20671;-76
2021/10/07 07:13:33;;;;;;;12.50;7.00;;;12.70;99.90;;;;;;5032184;28;20174;-76
2021/10/07 07:15:59;;;;;;;11.93;8.15;;;12.80;99.90;;;;;;5014689;28;20180;-76
2021/10/07 07:18:25;;;;;;;24.30;8.05;;;12.80;99.90;;;;;;5032124;28;20251;-76
2021/10/07 07:20:50;;;;;;;9.85;7.45;;;13.00;99.90;;;;;;5032070;28;20203;-75
2021/10/07 07:23:16;;;;;;;10.93;7.53;;;13.20;99.90;;;;;;5031981;28;20214;-76
2021/10/07 07:25:42;;;;;;;9.63;6.85;;;13.10;99.90;;;;;;5014503;28;20576;-76
2021/10/07 07:28:07;;;;;;;11.18;8.15;;;13.20;99.90;;;;;;5032102;28;20223;-76
2021/10/07 07:30:33;;;;;;;11.35;7.38;;;13.30;99.90;;;;;;5032036;28;20249;-75
2021/10/07 07:33:00;;;;;;;13.52;7.75;;;13.30;99.90;;;;;;5031956;28;20179;-75
2021/10/07 07:35:29;;;;;;;14.05;8.65;;;13.40;99.90;;;;;;5031923;28;20156;-77
2021/10/07 07:37:56;;;;;;;17.42;8.45;;;13.50;99.90;;;;;;5014328;28;20195;-77
2021/10/07 07:40:22;;;;;;;26.25;9.20;;;13.50;99.90;;;;;;5014186;28;20191;-77
2021/10/07 07:42:47;;;;;;;14.23;9.40;;;13.60;99.90;;;;;;5031623;28;20342;-78
2021/10/07 07:45:13;;;;;;;10.40;8.68;;;13.60;99.90;;;;;;5031887;28;20164;-76
2021/10/07 07:47:41;;;;;;;16.45;9.50;;;13.60;99.90;;;;;;5032113;28;20566;-76
2021/10/07 07:50:09;;;;;;;17.73;9.23;;;13.60;99.90;;;;;;5031689;28;20186;-76
2021/10/07 07:52:35;;;;;;;19.73;9.98;;;13.50;99.90;;;;;;5014446;28;20759;-75
2021/10/07 07:55:00;;;;;;;15.82;9.52;;;13.60;99.90;;;;;;5032091;28;20175;-75
2021/10/07 07:57:26;;;;;;;13.13;9.50;;;13.60;99.90;;;;;;5014596;28;20188;-81
2021/10/07 07:59:52;;;;;;;14.73;9.13;;;13.70;99.90;;;;;;5010995;28;20191;-77
2021/10/07 08:02:17;;;;;;;11.98;10.23;;;13.70;99.90;;;;;;5031212;28;20211;-76
2021/10/07 08:04:44;;;;;;;10.77;9.75;;;13.80;99.90;;;;;;5032210;28;20188;-76
2021/10/07 08:07:10;;;;;;;17.92;9.50;;;13.70;99.90;;;;;;5032452;28;20164;-76
2021/10/07 08:09:38;;;;;;;13.45;9.25;;;13.50;99.90;;;;;;5032290;28;20238;-76
2021/10/07 08:12:05;;;;;;;16.70;9.38;;;13.60;99.90;;;;;;5032310;28;20172;-76
2021/10/07 08:14:31;;;;;;;12.13;9.15;;;13.80;99.90;;;;;;5031999;28;20222;-76
2021/10/07 08:16:58;;;;;;;12.70;9.23;;;13.80;99.90;;;;;;5038799;28;20176;-76
2021/10/07 08:19:24;;;;;;;19.60;11.93;;;13.90;99.90;;;;;;5032796;28;20176;-76
2021/10/07 08:21:50;;;;;;;29.73;11.57;;;14.00;99.90;;;;;;5036632;28;20562;-77
2021/10/07 08:24:16;;;;;;;14.23;9.68;;;14.10;99.90;;;;;;5036962;28;20643;-76
2021/10/07 08:26:42;;;;;;;23.50;13.95;;;14.20;99.90;;;;;;5036980;28;20164;-77
2021/10/07 08:29:08;;;;;;;15.55;9.35;;;14.20;99.90;;;;;;5037306;28;20184;-76
2021/10/07 08:31:34;;;;;;;29.95;11.77;;;14.20;99.90;;;;;;5035987;28;20160;-76
2021/10/07 08:34:00;;;;;;;10.73;9.27;;;14.30;99.90;;;;;;5035886;28;20539;-76
2021/10/07 08:36:25;;;;;;;21.67;10.40;;;14.60;99.90;;;;;;5035772;28;20168;-76
2021/10/07 08:38:51;;;;;;;10.70;9.70;;;14.70;99.90;;;;;;5035886;28;20176;-82
2021/10/07 08:41:19;;;;;;;14.80;10.00;;;14.80;99.90;;;;;;5018359;28;20218;-79
2021/10/07 08:43:49;;;;;;;11.82;8.88;;;14.90;99.90;;;;;;5035942;28;20586;-77
2021/10/07 08:46:15;;;;;;;14.13;9.75;;;14.90;99.90;;;;;;5035701;28;20214;-76
2021/10/07 08:48:41;;;;;;;14.82;9.50;;;15.00;99.90;;;;;;5035690;28;20557;-77
2021/10/07 08:51:07;;;;;;;21.77;9.30;;;14.80;99.90;;;;;;5035634;28;20203;-77
2021/10/07 08:53:32;;;;;;;9.98;8.88;;;14.80;99.90;;;;;;5035791;28;20171;-77
2021/10/07 08:55:59;;;;;;;11.82;8.80;;;15.00;99.90;;;;;;5035764;28;20184;-76
2021/10/07 08:58:25;;;;;;;14.77;9.05;;;14.90;99.90;;;;;;5035896;28;20156;-78
2021/10/07 09:00:50;;;;;;;13.88;9.23;;;14.90;99.90;;;;;;5035286;28;20199;-77
2021/10/07 09:03:24;;;;;;;13.63;9.27;;;15.00;99.90;;;;;;5036548;28;20164;-76
2021/10/07 09:06:08;;;;;;;16.65;10.18;;;14.90;99.90;;;;;;5018488;28;20176;-80
2021/10/07 09:08:45;;;;;;;11.40;8.77;;;15.00;99.90;;;;;;5035764;28;20302;-76
2021/10/07 09:11:27;;;;;;;12.18;8.65;;;15.10;99.90;;;;;;5017520;28;20668;-76
2021/10/07 09:14:04;;;;;;;15.55;8.95;;;15.30;99.90;;;;;;5017519;28;20174;-76
2021/10/07 09:16:47;;;;;;;10.45;8.63;;;15.30;99.90;;;;;;5035095;28;20176;-76
2021/10/07 09:19:16;;;;;;;13.00;8.57;;;15.50;99.90;;;;;;5038546;28;20184;-76
2021/10/07 09:21:43;;;;;;;9.55;6.85;;;15.50;99.90;;;;;;5036349;28;20212;-76
2021/10/07 09:24:34;;;;;;;13.95;8.10;;;15.50;99.90;;;;;;5035189;28;20168;-77
2021/10/07 09:27:04;;;;;;;8.88;7.28;;;15.60;99.90;;;;;;5030884;28;20172;-78
2021/10/07 09:29:36;;;;;;;19.52;7.20;;;15.80;99.90;;;;;;5048636;28;20691;-77
2021/10/07 09:32:03;;;;;;;12.50;7.72;;;16.00;99.90;;;;;;5051785;28;20159;-77
2021/10/07 09:34:47;;;;;;;9.23;6.32;;;16.00;99.90;;;;;;5049101;28;20155;-81
2021/10/07 09:37:46;;;;;;;13.93;6.05;;;16.20;99.90;;;;;;5036441;28;20168;-81
2021/10/07 09:40:21;;;;;;;8.63;5.95;;;16.50;99.90;;;;;;5003351;28;20255;-78
2021/10/07 09:42:55;;;;;;;12.32;5.68;;;16.60;99.90;;;;;;5042804;28;20265;-78
2021/10/07 09:45:26;;;;;;;5.97;4.13;;;16.60;99.90;;;;;;5042370;28;20186;-78
2021/10/07 09:47:58;;;;;;;8.60;4.07;;;16.70;99.90;;;;;;5044897;28;20175;-78
2021/10/07 09:50:32;;;;;;;6.35;4.10;;;17.00;99.90;;;;;;5041518;28;20188;-78
2021/10/07 09:53:07;;;;;;;8.73;3.30;;;17.50;99.90;;;;;;5041892;28;20179;-78
2021/10/07 09:55:39;;;;;;;7.35;4.32;;;17.60;99.90;;;;;;5042841;28;20174;-77
2021/10/07 09:58:09;;;;;;;6.80;4.28;;;17.40;99.90;;;;;;5035558;28;20159;-77
2021/10/07 10:00:37;;;;;;;8.10;4.50;;;17.30;99.90;;;;;;5039782;28;20267;-77
2021/10/07 10:03:06;;;;;;;9.98;3.88;;;17.40;99.90;;;;;;5037269;28;20172;-77
2021/10/07 10:05:34;;;;;;;8.93;3.60;;;17.70;99.90;;;;;;5035975;28;20175;-77
2021/10/07 10:08:01;;;;;;;9.60;3.92;;;17.90;99.90;;;;;;5018308;28;20175;-79
2021/10/07 10:10:28;;;;;;;7.57;2.97;;;17.90;99.90;;;;;;5035220;28;20275;-77
2021/10/07 10:12:54;;;;;;;5.78;3.42;;;17.90;99.90;;;;;;5035732;28;20198;-77
2021/10/07 10:15:21;;;;;;;10.57;3.10;;;18.20;99.90;;;;;;5035130;28;20545;-77
2021/10/07 10:17:47;;;;;;;6.70;3.28;;;18.40;99.90;;;;;;5034867;28;20171;-77
2021/10/07 10:20:20;;;;;;;7.75;2.85;;;18.30;99.90;;;;;;5035560;28;20191;-77
2021/10/07 10:22:50;;;;;;;3.97;2.40;;;18.50;99.90;;;;;;5035086;28;20349;-77
2021/10/07 10:25:16;;;;;;;7.70;2.20;;;18.90;99.90;;;;;;5017283;28;20655;-78
2021/10/07 10:27:54;;;;;;;4.55;1.48;;;19.10;99.90;;;;;;5035485;28;20258;-76
2021/10/07 10:30:24;;;;;;;3.75;1.58;;;19.10;99.90;;;;;;5034882;28;21052;-76
2021/10/07 10:32:50;;;;;;;5.30;2.08;;;18.80;99.90;;;;;;5034959;28;20186;-76
2021/10/07 10:35:40;;;;;;;6.65;1.80;;;18.90;99.90;;;;;;5034826;28;20218;-77
2021/10/07 10:38:11;;;;;;;3.83;1.85;;;18.90;99.90;;;;;;5034718;28;20183;-78
2021/10/07 10:40:38;;;;;;;12.98;2.47;;;18.70;99.90;;;;;;5033925;28;20183;-77
2021/10/07 10:43:19;;;;;;;11.98;2.22;;;18.90;99.90;;;;;;5015466;28;20576;-78
2021/10/07 10:45:51;;;;;;;3.13;1.77;;;18.90;99.90;;;;;;5033226;28;20239;-79
2021/10/07 10:48:41;;;;;;;4.68;2.33;;;19.10;99.90;;;;;;5033137;28;20178;-76
2021/10/07 10:51:15;;;;;;;7.82;1.48;;;19.10;99.90;;;;;;5033183;28;20188;-77
2021/10/07 10:53:57;;;;;;;4.53;2.05;;;18.80;99.90;;;;;;5033382;28;20160;-77
2021/10/07 10:56:23;;;;;;;2.70;1.83;;;18.70;99.90;;;;;;5032895;28;20188;-77
2021/10/07 10:58:54;;;;;;;4.57;2.10;;;18.90;99.90;;;;;;5015354;28;20217;-80
2021/10/07 11:01:19;;;;;;;2.83;2.03;;;18.70;99.90;;;;;;5033154;28;20279;-81
2021/10/07 11:03:46;;;;;;;11.10;1.70;;;18.70;99.90;;;;;;5032918;28;20643;-77
2021/10/07 11:06:12;;;;;;;13.02;2.25;;;18.70;99.90;;;;;;5032841;28;20191;-76
2021/10/07 11:08:40;;;;;;;10.27;2.05;;;18.70;99.90;;;;;;5032926;28;20648;-77
2021/10/07 11:11:22;;;;;;;10.32;2.17;;;18.60;99.90;;;;;;5032968;28;20198;-81
2021/10/07 11:13:48;;;;;;;5.13;1.50;;;18.60;99.90;;;;;;5033239;28;20167;-77
2021/10/07 11:16:19;;;;;;;8.45;1.75;;;18.70;99.90;;;;;;5033456;28;20171;-77
2021/10/07 11:18:46;;;;;;;3.05;1.65;;;18.90;99.90;;;;;;5032770;28;20628;-76
2021/10/07 11:21:17;;;;;;;4.25;1.92;;;19.20;99.90;;;;;;5032595;28;20243;-77
2021/10/07 11:23:55;;;;;;;5.28;2.17;;;19.50;99.90;;;;;;5032960;28;20703;-77
2021/10/07 11:26:24;;;;;;;14.35;3.53;;;19.80;99.90;;;;;;5032769;28;20160;-77
2021/10/07 11:28:51;;;;;;;4.82;2.03;;;19.90;99.90;;;;;;5032546;28;20172;-76
2021/10/07 11:31:19;;;;;;;3.63;1.85;;;20.00;99.90;;;;;;5021502;28;20200;-83
2021/10/07 11:33:49;;;;;;;7.95;2.30;;;20.10;99.90;;;;;;5011853;28;20168;-80
2021/10/07 11:36:27;;;;;;;7.00;3.00;;;20.20;99.90;;;;;;5027658;28;20183;-80
2021/10/07 11:38:54;;;;;;;6.95;3.15;;;20.40;99.90;;;;;;5039069;28;20574;-77
2021/10/07 11:41:23;;;;;;;5.85;2.35;;;20.30;99.90;;;;;;5040729;28;20196;-76
2021/10/07 11:44:19;;;;;;;5.50;3.17;;;20.10;99.90;;;;;;5032469;28;20203;-77
2021/10/07 11:46:45;;;;;;;7.88;2.42;;;20.10;99.90;;;;;;5031908;28;20195;-76
2021/10/07 11:49:11;;;;;;;10.48;5.45;;;19.70;99.90;;;;;;5031571;28;20216;-77
2021/10/07 11:51:39;;;;;;;9.65;5.88;;;19.60;99.90;;;;;;5031814;28;20174;-76
2021/10/07 11:54:05;;;;;;;13.75;8.10;;;19.60;99.90;;;;;;5031727;28;20163;-82
2021/10/07 11:56:33;;;;;;;6.22;5.50;;;19.60;99.90;;;;;;5034544;28;20222;-75
2021/10/07 11:59:01;;;;;;;10.23;3.90;;;19.60;99.90;;;;;;5035070;28;20589;-80
2021/10/07 12:01:32;;;;;;;5.82;3.45;;;19.40;99.90;;;;;;5034967;28;20195;-79
2021/10/07 12:04:00;;;;;;;11.15;2.15;;;19.20;99.90;;;;;;5035490;28;20710;-79
2021/10/07 12:06:28;;;;;;;10.73;2.42;;;19.20;99.90;;;;;;5034949;28;20160;-78
2021/10/07 12:08:54;;;;;;;4.25;3.10;;;19.10;99.90;;;;;;5034988;28;20163;-78
2021/10/07 12:11:25;;;;;;;11.10;2.60;;;19.00;99.90;;;;;;5035041;28;20218;-77
2021/10/07 12:13:56;;;;;;;16.90;2.60;;;19.10;99.90;;;;;;5035213;28;20225;-75
2021/10/07 12:16:30;;;;;;;3.70;2.50;;;19.40;99.90;;;;;;5034380;28;20172;-81
2021/10/07 12:19:10;;;;;;;3.25;2.17;;;19.70;99.90;;;;;;5034814;28;20171;-82
2021/10/07 12:21:44;;;;;;;8.30;2.70;;;19.90;99.90;;;;;;5035764;28;20203;-75
2021/10/07 12:24:10;;;;;;;4.00;1.58;;;19.80;99.90;;;;;;5035797;28;20175;-76
2021/10/07 12:26:36;;;;;;;1.75;1.35;;;19.80;99.90;;;;;;5035609;28;20245;-75
2021/10/07 12:29:13;;;;;;;7.38;1.70;;;19.90;99.90;;;;;;5034739;28;20164;-87
2021/10/07 12:31:51;;;;;;;5.57;1.77;;;19.90;99.90;;;;;;5035540;28;20171;-76
2021/10/07 12:34:17;;;;;;;2.88;1.60;;;19.90;99.90;;;;;;5035652;28;20167;-79
2021/10/07 12:36:47;;;;;;;5.35;1.63;;;20.10;99.90;;;;;;5035719;28;20172;-76
2021/10/07 12:39:29;;;;;;;5.93;1.80;;;20.40;99.90;;;;;;5035881;28;20184;-75
2021/10/07 12:42:11;;;;;;;1.83;1.73;;;20.60;99.90;;;;;;5036320;28;20211;-76
2021/10/07 12:44:43;;;;;;;3.92;1.90;;;20.70;99.90;;;;;;5036716;28;20171;-76
2021/10/07 12:47:15;;;;;;;4.68;1.98;;;20.60;99.90;;;;;;5035101;28;20182;-77
2021/10/07 12:49:46;;;;;;;5.57;2.10;;;20.00;99.90;;;;;;5034992;28;20287;-85